< Typhoon 201709 2017 Season Typhoon 201711 >
Typhoon 201710 (HAITANG)
General InformationTrack Information on Google MapsDetailed Wind InformationForecast History on Google MapsAccess Analytics MapList of All Images || NewsDisaster Info.WeblogTrackbackTyphoon FrontTwiphoonTyphoon Now!Typhoon ImaginationJMA Disaster Info. XMLResourceGoogle EarthGE AnimationAtom FeedGeoJSON
Detalied Best Track (Time Zone = UTC)
Year Month Day Hour Lat. Long. Pressure (hPa) Wind (kt) Class Image Chart
2017 7 27 12 19.2 117.8 1000 0 2 Image Chart
2017 7 27 18 19.4 117.2 1000 0 2 Image Chart
2017 7 28 00 19.3 116.6 1000 0 2 Image Chart
2017 7 28 06 19.2 116.1 998 0 2 Image Chart
2017 7 28 12 18.5 115.8 998 0 2 Image Chart
2017 7 28 18 18.0 115.8 996 35 3 Image Chart
2017 7 29 00 18.1 116.2 994 35 3 Image Chart
2017 7 29 06 18.2 116.6 990 40 3 Image Chart
2017 7 29 12 18.6 117.3 990 40 3 Image Chart
2017 7 29 18 19.0 118.2 990 40 3 Image Chart
2017 7 30 00 20.1 119.4 990 40 3 Image Chart
2017 7 30 06 21.9 120.3 985 45 3 Image Chart
2017 7 30 12 23.0 120.5 990 40 3 Image Chart
2017 7 30 18 24.7 120.3 990 40 3 Image Chart
2017 7 31 00 26.2 118.6 992 35 3 Image Chart
2017 7 31 06 27.2 117.6 994 0 2 Image Chart
2017 7 31 12 28.2 117.1 994 0 2 Image Chart
2017 7 31 18 29.2 116.6 996 0 2 Image Chart
2017 8 1 00 29.8 116.3 996 0 2 Image Chart
2017 8 1 06 30.4 116.0 996 0 6 Image Chart
2017 8 1 12 31.0 115.7 996 0 6 Image Chart
2017 8 1 18 31.4 115.5 996 0 6 Image Chart
2017 8 2 00 31.8 115.8 996 0 6 Image Chart
2017 8 2 06 32.4 115.9 996 0 6 Image Chart
2017 8 2 12 33.3 116.0 996 0 6 Image Chart
2017 8 2 18 34.1 116.2 996 0 6 Image Chart
Japan Meteorological Agency Best Track Data | Correction Date : 2017-09-26
< Typhoon 201709 2017 Season Typhoon 201711 >

Help